Time;durP1;ratioP1;P1;durP2;ratioP2;P2;SDS_P1;SDS_P2;PMS_P1;PMS_P2;Temp;Humidity;BMP_temperature;BMP_pressure;BME280_temperature;BME280_humidity;BME280_pressure;Samples;Min_cycle;Max_cycle;Signal;HPM_P1;HPM_P2
2021/10/06 00:00:18;;;;;;;8.33;2.60;;;11.20;99.90;;;;;;5015718;28;20226;-82
2021/10/06 00:02:44;;;;;;;6.47;2.70;;;11.20;99.90;;;;;;5034755;28;20798;-82
2021/10/06 00:05:10;;;;;;;4.17;2.43;;;11.10;99.90;;;;;;5033090;28;20659;-82
2021/10/06 00:07:35;;;;;;;8.00;2.57;;;11.10;99.90;;;;;;5031035;28;20675;-81
2021/10/06 00:10:02;;;;;;;4.07;2.53;;;11.10;99.90;;;;;;5034069;28;20937;-82
2021/10/06 00:12:28;;;;;;;4.03;1.73;;;11.10;99.90;;;;;;5042039;28;20229;-80
2021/10/06 00:14:54;;;;;;;7.37;2.47;;;11.00;99.90;;;;;;5037774;28;20915;-81
2021/10/06 00:17:20;;;;;;;6.20;2.33;;;11.00;99.90;;;;;;5027484;28;20655;-82
2021/10/06 00:19:45;;;;;;;4.80;2.20;;;11.00;99.90;;;;;;5047200;28;20190;-83
2021/10/06 00:22:11;;;;;;;8.63;2.60;;;11.00;99.90;;;;;;5042155;28;20803;-82
2021/10/06 00:24:37;;;;;;;4.47;2.53;;;10.90;99.90;;;;;;5038415;28;20200;-82
2021/10/06 00:27:02;;;;;;;4.60;2.10;;;10.90;99.90;;;;;;5042586;28;20202;-82
2021/10/06 00:29:28;;;;;;;4.50;1.70;;;10.90;95.80;;;;;;5044931;28;20271;-82
2021/10/06 00:31:54;;;;;;;5.13;1.50;;;10.90;99.90;;;;;;5035428;28;20229;-82
2021/10/06 00:34:21;;;;;;;3.83;2.40;;;10.90;82.10;;;;;;5049627;28;20697;-82
2021/10/06 00:36:47;;;;;;;4.10;2.00;;;10.80;84.90;;;;;;5045858;28;20529;-82
2021/10/06 00:39:13;;;;;;;7.47;2.17;;;10.80;83.50;;;;;;5045458;28;20440;-82
2021/10/06 00:41:38;;;;;;;5.57;1.90;;;10.70;74.70;;;;;;5041287;28;20444;-81
2021/10/06 00:44:04;;;;;;;3.93;2.10;;;10.70;87.40;;;;;;5031236;28;20191;-81
2021/10/06 00:46:30;;;;;;;5.10;2.40;;;10.80;77.00;;;;;;5045196;28;20198;-82
2021/10/06 00:48:56;;;;;;;4.73;2.10;;;10.80;90.60;;;;;;5045422;28;20469;-80
2021/10/06 00:51:21;;;;;;;6.07;1.77;;;10.80;47.50;;;;;;5026077;28;20837;-82
2021/10/06 00:53:47;;;;;;;12.10;2.37;;;10.70;41.50;;;;;;5046348;28;20182;-81
2021/10/06 00:56:13;;;;;;;4.17;1.83;;;10.70;38.20;;;;;;5037584;28;20187;-82
2021/10/06 00:58:39;;;;;;;3.23;2.03;;;10.70;39.10;;;;;;5038354;28;20217;-82
2021/10/06 01:01:04;;;;;;;3.97;1.70;;;10.70;44.00;;;;;;5035338;28;20207;-81
2021/10/06 01:03:30;;;;;;;8.70;2.17;;;10.70;33.50;;;;;;5040678;28;20563;-81
2021/10/06 01:05:56;;;;;;;3.50;1.90;;;10.60;32.70;;;;;;5039218;28;20183;-82
2021/10/06 01:08:22;;;;;;;4.83;2.20;;;10.60;24.20;;;;;;5038688;28;20182;-81
2021/10/06 01:10:48;;;;;;;11.57;2.33;;;10.60;24.80;;;;;;5045202;28;20225;-82
2021/10/06 01:13:16;;;;;;;5.77;2.07;;;10.60;23.00;;;;;;5050726;28;20463;-82
2021/10/06 01:15:43;;;;;;;3.67;2.03;;;10.60;39.90;;;;;;5041395;28;20460;-82
2021/10/06 01:18:09;;;;;;;3.93;1.70;;;10.60;25.90;;;;;;5035525;28;20435;-81
2021/10/06 01:20:34;;;;;;;4.50;2.13;;;10.60;22.30;;;;;;5039505;28;20805;-81
2021/10/06 01:23:00;;;;;;;8.87;1.90;;;10.70;28.80;;;;;;5027861;28;20206;-82
2021/10/06 01:25:26;;;;;;;6.97;2.03;;;10.60;15.90;;;;;;5023367;28;20471;-81
2021/10/06 01:27:52;;;;;;;2.87;2.07;;;10.60;8.90;;;;;;5049467;28;20194;-82
2021/10/06 01:30:18;;;;;;;6.43;2.40;;;10.70;14.70;;;;;;5032632;28;20514;-81
2021/10/06 01:32:46;;;;;;;4.47;1.70;;;10.60;4.40;;;;;;5029238;28;20683;-83
2021/10/06 01:35:14;;;;;;;4.37;1.80;;;10.70;1.00;;;;;;5045788;28;20186;-81
2021/10/06 01:37:40;;;;;;;10.40;2.27;;;10.70;1.00;;;;;;5032217;28;20453;-82
2021/10/06 01:40:12;;;;;;;4.70;1.77;;;10.60;1.60;;;;;;5043086;28;21159;-82
2021/10/06 01:42:39;;;;;;;10.27;2.10;;;10.70;1.00;;;;;;5047485;28;20436;-81
2021/10/06 01:45:05;;;;;;;2.60;1.50;;;10.70;1.00;;;;;;5047118;28;20494;-82
2021/10/06 01:47:31;;;;;;;6.50;2.10;;;10.70;1.00;;;;;;5037672;28;20449;-82
2021/10/06 01:49:56;;;;;;;3.60;1.77;;;10.70;1.00;;;;;;5044123;28;20479;-81
2021/10/06 01:52:24;;;;;;;7.17;2.60;;;10.60;1.00;;;;;;5034783;28;22355;-83
2021/10/06 01:54:53;;;;;;;7.80;2.70;;;10.60;1.00;;;;;;5034838;28;20982;-81
2021/10/06 01:57:20;;;;;;;4.90;2.30;;;10.60;1.00;;;;;;5031148;28;20783;-81
2021/10/06 01:59:50;;;;;;;3.37;1.67;;;10.70;1.00;;;;;;5007654;28;20476;-82
2021/10/06 02:02:18;;;;;;;4.23;2.03;;;10.60;1.00;;;;;;5021833;28;20599;-82
2021/10/06 02:04:43;;;;;;;4.37;2.00;;;10.60;1.00;;;;;;5045774;28;20515;-81
2021/10/06 02:07:09;;;;;;;8.20;2.23;;;10.60;1.00;;;;;;5040335;28;21173;-80
2021/10/06 02:09:35;;;;;;;4.60;1.53;;;10.60;1.00;;;;;;5030082;28;22311;-80
2021/10/06 02:12:01;;;;;;;6.80;2.07;;;10.50;1.00;;;;;;5039770;28;21540;-80
2021/10/06 02:14:27;;;;;;;7.17;2.07;;;10.50;1.00;;;;;;5046748;28;20187;-80
2021/10/06 02:16:53;;;;;;;5.97;2.07;;;10.50;1.00;;;;;;5040162;28;20455;-80
2021/10/06 02:19:18;;;;;;;8.43;2.23;;;10.50;1.00;;;;;;5035478;28;20989;-81
2021/10/06 02:21:44;;;;;;;6.03;2.40;;;10.50;1.00;;;;;;5037059;28;20194;-82
2021/10/06 02:24:10;;;;;;;7.67;2.60;;;10.50;1.00;;;;;;5025195;28;20711;-81
2021/10/06 02:26:35;;;;;;;4.67;2.07;;;10.50;1.00;;;;;;5034526;28;20493;-82
2021/10/06 02:29:02;;;;;;;5.73;2.50;;;10.50;1.00;;;;;;5041436;28;20820;-81
2021/10/06 02:31:27;;;;;;;5.97;2.20;;;10.50;1.00;;;;;;5025424;28;20219;-82
2021/10/06 02:33:53;;;;;;;4.43;2.17;;;10.40;1.00;;;;;;5023553;28;20469;-81
2021/10/06 02:36:18;;;;;;;3.47;1.90;;;10.40;9.80;;;;;;5041712;28;20206;-81
2021/10/06 02:38:44;;;;;;;4.07;2.03;;;10.40;6.10;;;;;;5035879;28;20194;-82
2021/10/06 02:41:10;;;;;;;7.30;3.10;;;10.40;15.80;;;;;;5030904;28;20379;-83
2021/10/06 02:43:36;;;;;;;10.27;3.00;;;10.40;3.40;;;;;;5041554;28;20187;-82
2021/10/06 02:46:02;;;;;;;5.10;2.60;;;10.40;1.00;;;;;;5041889;28;21020;-82
2021/10/06 02:48:27;;;;;;;7.37;2.30;;;10.40;3.50;;;;;;5043173;28;20508;-82
2021/10/06 02:50:53;;;;;;;5.67;2.20;;;10.40;1.00;;;;;;5039028;28;20214;-82
2021/10/06 02:53:19;;;;;;;8.50;2.20;;;10.50;1.00;;;;;;5025926;28;20612;-82
2021/10/06 02:55:44;;;;;;;8.57;2.07;;;10.50;1.00;;;;;;5037725;28;20450;-83
2021/10/06 02:58:10;;;;;;;11.60;2.33;;;10.60;1.00;;;;;;5042400;28;20648;-83
2021/10/06 03:00:36;;;;;;;11.67;2.33;;;10.60;1.00;;;;;;5023980;28;20268;-82
2021/10/06 03:03:02;;;;;;;4.47;2.03;;;10.70;1.00;;;;;;5018994;28;20460;-82
2021/10/06 03:05:28;;;;;;;6.97;2.70;;;10.70;1.00;;;;;;5031277;28;20536;-82
2021/10/06 03:07:53;;;;;;;5.87;2.07;;;10.60;1.00;;;;;;5039016;28;20205;-82
2021/10/06 03:10:19;;;;;;;11.33;2.63;;;10.70;1.00;;;;;;5028987;28;20346;-82
2021/10/06 03:12:45;;;;;;;8.60;2.20;;;10.60;1.00;;;;;;5025190;28;20296;-82
2021/10/06 03:15:11;;;;;;;5.60;2.07;;;10.80;1.00;;;;;;5035047;28;20186;-82
2021/10/06 03:17:37;;;;;;;8.00;2.30;;;10.80;1.00;;;;;;5025610;28;20205;-82
2021/10/06 03:20:06;;;;;;;2.60;1.77;;;10.80;1.00;;;;;;5037892;28;20510;-82
2021/10/06 03:22:32;;;;;;;9.83;2.03;;;10.70;1.00;;;;;;5042535;28;21198;-81
2021/10/06 03:24:57;;;;;;;6.43;2.37;;;10.80;1.00;;;;;;5044148;28;20452;-82
2021/10/06 03:27:23;;;;;;;6.73;2.30;;;10.80;1.00;;;;;;5021690;28;20202;-84
2021/10/06 03:29:49;;;;;;;5.80;2.30;;;10.80;1.00;;;;;;5035773;28;20187;-82
2021/10/06 03:32:14;;;;;;;7.00;1.87;;;10.80;1.00;;;;;;5028986;28;20258;-83
2021/10/06 03:34:40;;;;;;;7.50;2.57;;;10.70;1.00;;;;;;5036957;28;20191;-82
2021/10/06 03:37:06;;;;;;;7.33;2.27;;;10.70;1.00;;;;;;5042991;28;20186;-82
2021/10/06 03:39:32;;;;;;;10.77;2.80;;;10.60;1.00;;;;;;5041497;28;20574;-82
2021/10/06 03:41:57;;;;;;;6.60;2.60;;;10.60;1.00;;;;;;5041468;28;20244;-82
2021/10/06 03:44:23;;;;;;;3.50;2.00;;;10.60;1.00;;;;;;5033130;28;21558;-82
2021/10/06 03:46:48;;;;;;;9.40;2.40;;;10.70;1.00;;;;;;5033554;28;20220;-83
2021/10/06 03:49:14;;;;;;;7.80;2.30;;;10.60;1.00;;;;;;5039119;28;20190;-81
2021/10/06 03:51:40;;;;;;;12.47;2.87;;;10.70;1.00;;;;;;5030938;28;20265;-82
2021/10/06 03:54:05;;;;;;;10.70;2.37;;;10.70;1.00;;;;;;5028248;28;20601;-82
2021/10/06 03:56:31;;;;;;;5.50;2.27;;;10.70;1.00;;;;;;5045228;28;20660;-82
2021/10/06 03:58:57;;;;;;;5.90;2.30;;;10.70;1.00;;;;;;5035679;28;21253;-82
2021/10/06 04:01:22;;;;;;;8.53;2.20;;;10.70;1.00;;;;;;5009535;28;20206;-82
2021/10/06 04:03:48;;;;;;;7.20;2.50;;;10.80;1.00;;;;;;5024048;28;20308;-81
2021/10/06 04:06:14;;;;;;;4.73;2.40;;;10.80;1.00;;;;;;5028493;28;20215;-82
2021/10/06 04:08:42;;;;;;;10.67;2.97;;;10.90;1.00;;;;;;5033427;28;20198;-82
2021/10/06 04:11:07;;;;;;;10.90;2.67;;;10.90;1.00;;;;;;5025114;28;20247;-82
2021/10/06 04:13:33;;;;;;;7.63;2.30;;;10.90;1.00;;;;;;5047596;28;20556;-82
2021/10/06 04:15:58;;;;;;;7.90;2.13;;;10.90;1.00;;;;;;5016737;28;20294;-80
2021/10/06 04:18:24;;;;;;;4.53;1.90;;;11.00;1.00;;;;;;5040516;28;20635;-82
2021/10/06 04:20:52;;;;;;;4.97;2.10;;;10.90;1.00;;;;;;5025828;28;21966;-82
2021/10/06 04:23:18;;;;;;;5.43;1.83;;;11.20;1.00;;;;;;5031920;28;20191;-81
2021/10/06 04:25:44;;;;;;;6.43;1.90;;;11.20;1.00;;;;;;5032505;28;20441;-81
2021/10/06 04:28:10;;;;;;;5.73;2.90;;;11.20;1.00;;;;;;5022444;28;20207;-81
2021/10/06 04:30:35;;;;;;;3.80;2.30;;;11.20;1.00;;;;;;5019730;28;20715;-81
2021/10/06 04:33:01;;;;;;;6.80;2.30;;;11.20;1.00;;;;;;5057460;28;20191;-81
2021/10/06 04:35:27;;;;;;;7.70;2.30;;;11.30;1.00;;;;;;5034379;28;20186;-80
2021/10/06 04:37:53;;;;;;;5.03;2.30;;;11.30;1.00;;;;;;5026922;28;20546;-81
2021/10/06 04:40:22;;;;;;;7.23;2.13;;;11.30;1.00;;;;;;5036513;28;20520;-80
2021/10/06 04:42:48;;;;;;;11.60;2.70;;;11.40;1.00;;;;;;5043992;28;20499;-81
2021/10/06 04:45:14;;;;;;;6.13;2.20;;;11.40;1.00;;;;;;5040474;28;20499;-82
2021/10/06 04:47:40;;;;;;;3.77;2.03;;;11.40;1.00;;;;;;5041080;28;20457;-82
2021/10/06 04:50:07;;;;;;;4.07;1.90;;;11.40;1.00;;;;;;5039825;28;20187;-82
2021/10/06 04:52:32;;;;;;;3.50;2.43;;;11.50;1.00;;;;;;5049937;28;20476;-81
2021/10/06 04:54:58;;;;;;;5.60;2.60;;;11.50;1.00;;;;;;5050151;28;20460;-81
2021/10/06 04:57:24;;;;;;;9.30;2.77;;;11.50;1.00;;;;;;5029639;28;20198;-81
2021/10/06 04:59:50;;;;;;;6.93;2.63;;;11.50;1.00;;;;;;5032010;28;20921;-81
2021/10/06 05:02:16;;;;;;;7.83;2.30;;;11.50;1.00;;;;;;5021068;28;20969;-80
2021/10/06 05:04:42;;;;;;;4.40;1.93;;;11.50;1.00;;;;;;5027889;28;20452;-81
2021/10/06 05:07:08;;;;;;;5.40;1.90;;;11.40;1.00;;;;;;5037290;28;20313;-81
2021/10/06 05:09:34;;;;;;;6.40;2.47;;;11.40;1.00;;;;;;5031358;28;20195;-83
2021/10/06 05:11:59;;;;;;;6.10;2.00;;;11.20;1.00;;;;;;5043502;28;20597;-82
2021/10/06 05:14:28;;;;;;;10.90;2.90;;;11.30;1.00;;;;;;5040619;28;20457;-81
2021/10/06 05:16:54;;;;;;;8.53;1.80;;;11.20;1.00;;;;;;5038168;28;20558;-81
2021/10/06 05:19:22;;;;;;;9.93;2.00;;;11.30;1.00;;;;;;5049887;28;21017;-81
2021/10/06 05:21:48;;;;;;;5.43;1.80;;;11.20;1.00;;;;;;5035475;28;20468;-81
2021/10/06 05:24:14;;;;;;;9.40;2.00;;;11.30;1.00;;;;;;5034580;28;20444;-81
2021/10/06 05:26:40;;;;;;;5.30;1.90;;;11.30;1.00;;;;;;5043980;28;20554;-81
2021/10/06 05:29:06;;;;;;;3.00;1.50;;;11.40;1.00;;;;;;5041423;28;20221;-83
2021/10/06 05:31:32;;;;;;;6.67;2.23;;;11.30;1.00;;;;;;5046798;28;20214;-81
2021/10/06 05:33:58;;;;;;;7.67;1.90;;;11.20;1.00;;;;;;5040486;28;21216;-82
2021/10/06 05:36:23;;;;;;;9.20;2.20;;;11.30;1.00;;;;;;5040142;28;20448;-82
2021/10/06 05:38:50;;;;;;;3.47;1.40;;;11.30;1.00;;;;;;5025220;28;20182;-81
2021/10/06 05:41:16;;;;;;;3.33;2.10;;;11.30;1.00;;;;;;5040134;28;20187;-82
2021/10/06 05:43:42;;;;;;;7.77;2.37;;;11.30;1.00;;;;;;5044293;28;20471;-81
2021/10/06 05:46:08;;;;;;;7.03;2.10;;;11.30;1.00;;;;;;5048595;28;20234;-82
2021/10/06 05:48:33;;;;;;;6.03;2.07;;;11.30;1.00;;;;;;5042853;28;20198;-81
2021/10/06 05:50:59;;;;;;;8.30;2.50;;;11.30;1.00;;;;;;5051166;28;20492;-80
2021/10/06 05:53:25;;;;;;;7.70;2.27;;;11.30;1.00;;;;;;5046496;28;20546;-81
2021/10/06 05:55:50;;;;;;;6.77;1.70;;;11.10;1.00;;;;;;5048507;28;20652;-80
2021/10/06 05:58:18;;;;;;;4.87;1.93;;;11.20;1.00;;;;;;5038456;28;20175;-80
2021/10/06 06:00:44;;;;;;;4.20;2.07;;;11.30;1.00;;;;;;5043422;28;20305;-81
2021/10/06 06:03:09;;;;;;;10.23;3.53;;;11.30;1.00;;;;;;5055124;28;20658;-80
2021/10/06 06:05:38;;;;;;;4.67;2.23;;;11.30;1.00;;;;;;5043302;28;20190;-81
2021/10/06 06:08:04;;;;;;;7.47;2.17;;;11.50;1.00;;;;;;5044880;28;20195;-80
2021/10/06 06:10:29;;;;;;;5.17;1.93;;;11.50;1.00;;;;;;5043305;28;20511;-80
2021/10/06 06:12:55;;;;;;;9.03;1.87;;;11.50;1.00;;;;;;5041061;28;20589;-80
2021/10/06 06:15:21;;;;;;;8.20;1.87;;;11.60;1.00;;;;;;5048683;28;20190;-80
2021/10/06 06:17:46;;;;;;;6.47;1.83;;;11.60;1.00;;;;;;5037645;28;20198;-82
2021/10/06 06:20:14;;;;;;;7.03;1.97;;;11.50;1.00;;;;;;5044569;28;20186;-81
2021/10/06 06:22:40;;;;;;;6.63;1.80;;;11.50;1.00;;;;;;5042756;28;20640;-81
2021/10/06 06:25:08;;;;;;;9.93;2.10;;;11.50;1.00;;;;;;5053092;28;20471;-82
2021/10/06 06:27:33;;;;;;;10.50;2.50;;;11.40;1.00;;;;;;5042908;28;20577;-81
2021/10/06 06:29:59;;;;;;;7.17;2.00;;;11.40;1.00;;;;;;5053494;28;20831;-81
2021/10/06 06:32:25;;;;;;;6.13;2.20;;;11.20;1.00;;;;;;5046089;28;20244;-81
2021/10/06 06:34:51;;;;;;;3.10;1.50;;;11.40;1.00;;;;;;5055346;28;20805;-81
2021/10/06 06:37:17;;;;;;;9.13;1.83;;;11.40;1.00;;;;;;5053338;28;20207;-81
2021/10/06 06:39:43;;;;;;;2.60;1.23;;;11.40;1.00;;;;;;5054682;28;20198;-81
2021/10/06 06:42:08;;;;;;;7.83;2.00;;;11.50;1.00;;;;;;5049195;28;20444;-81
2021/10/06 06:44:34;;;;;;;4.17;1.97;;;11.30;1.00;;;;;;5050133;28;20187;-82
2021/10/06 06:47:00;;;;;;;10.63;1.87;;;11.30;1.00;;;;;;5052739;28;20203;-81
2021/10/06 06:49:25;;;;;;;7.67;1.90;;;11.40;1.00;;;;;;5052354;28;20186;-81
2021/10/06 06:51:51;;;;;;;5.13;1.80;;;11.20;1.00;;;;;;5049955;28;20630;-82
2021/10/06 06:54:17;;;;;;;4.53;1.90;;;11.20;1.00;;;;;;5050118;28;20193;-81
2021/10/06 06:56:43;;;;;;;5.57;1.97;;;11.20;1.00;;;;;;5053468;28;20452;-81
2021/10/06 06:59:09;;;;;;;8.17;2.00;;;11.20;1.00;;;;;;5043055;28;20313;-81
2021/10/06 07:01:36;;;;;;;5.33;2.20;;;11.20;1.00;;;;;;5042288;28;20268;-81
2021/10/06 07:04:01;;;;;;;5.53;2.03;;;11.10;1.00;;;;;;5050923;28;20456;-82
2021/10/06 07:06:32;;;;;;;5.43;2.17;;;11.10;1.00;;;;;;5047954;28;20449;-81
2021/10/06 07:08:59;;;;;;;5.03;1.77;;;11.10;1.00;;;;;;5039459;28;21500;-81
2021/10/06 07:11:25;;;;;;;7.23;3.20;;;11.00;1.00;;;;;;5043730;28;20476;-81
2021/10/06 07:13:51;;;;;;;4.77;2.13;;;10.90;1.00;;;;;;5051850;28;20834;-81
2021/10/06 07:16:16;;;;;;;6.63;2.57;;;10.90;19.20;;;;;;5042074;28;20429;-82
2021/10/06 07:18:42;;;;;;;8.30;2.40;;;10.80;24.60;;;;;;5042024;28;20190;-82
2021/10/06 07:21:08;;;;;;;4.50;2.47;;;10.80;71.70;;;;;;5042482;28;20195;-81
2021/10/06 07:23:33;;;;;;;4.40;2.20;;;10.70;99.90;;;;;;5032477;28;20291;-81
2021/10/06 07:25:59;;;;;;;7.73;3.07;;;10.70;97.90;;;;;;5043056;28;20249;-82
2021/10/06 07:28:25;;;;;;;5.90;2.40;;;10.60;99.90;;;;;;5035346;28;20205;-82
2021/10/06 07:30:51;;;;;;;15.90;2.10;;;10.60;99.90;;;;;;5032123;28;20488;-81
2021/10/06 07:33:17;;;;;;;4.67;2.60;;;10.70;99.90;;;;;;5033538;28;20672;-82
2021/10/06 07:35:43;;;;;;;6.13;2.60;;;10.60;99.90;;;;;;5040822;28;20447;-82
2021/10/06 07:38:08;;;;;;;4.40;2.37;;;10.60;99.90;;;;;;5041160;28;20496;-82
2021/10/06 07:40:34;;;;;;;6.50;2.40;;;10.70;99.90;;;;;;5034394;28;20644;-82
2021/10/06 07:42:59;;;;;;;3.10;1.97;;;10.70;99.90;;;;;;5036800;28;20186;-82
2021/10/06 07:45:25;;;;;;;4.07;2.40;;;10.70;99.90;;;;;;5017997;28;20191;-82
2021/10/06 07:47:51;;;;;;;6.53;2.87;;;10.70;99.90;;;;;;5020983;28;20220;-81
2021/10/06 07:50:17;;;;;;;6.30;2.27;;;10.70;99.90;;;;;;5008590;28;20194;-82
2021/10/06 07:52:43;;;;;;;5.87;2.20;;;10.60;99.90;;;;;;5009070;28;20266;-81
2021/10/06 07:55:09;;;;;;;5.40;2.17;;;10.50;99.90;;;;;;5013793;28;20448;-82
2021/10/06 07:57:35;;;;;;;8.13;2.20;;;10.50;99.90;;;;;;5021815;28;20266;-82
2021/10/06 08:00:05;;;;;;;4.53;2.30;;;10.60;99.90;;;;;;5034439;28;20471;-82
2021/10/06 08:02:37;;;;;;;5.37;2.43;;;10.50;99.90;;;;;;5000731;28;22227;-82
2021/10/06 08:05:03;;;;;;;6.40;2.60;;;10.50;99.90;;;;;;5014573;28;20452;-82
2021/10/06 08:07:29;;;;;;;5.70;2.67;;;10.50;99.90;;;;;;5030340;28;20452;-83
2021/10/06 08:09:54;;;;;;;4.70;2.50;;;10.60;99.90;;;;;;5032804;28;20440;-81
2021/10/06 08:12:20;;;;;;;4.03;1.73;;;10.60;99.90;;;;;;5010264;28;20719;-81
2021/10/06 08:14:46;;;;;;;9.93;1.97;;;10.70;99.90;;;;;;4997523;28;20183;-81
2021/10/06 08:17:12;;;;;;;11.33;2.50;;;10.70;99.90;;;;;;5025065;28;20248;-83
2021/10/06 08:19:38;;;;;;;8.47;3.37;;;10.70;99.90;;;;;;5024332;28;20452;-81
2021/10/06 08:22:04;;;;;;;3.60;2.37;;;10.70;99.90;;;;;;5031768;28;21012;-83
2021/10/06 08:24:30;;;;;;;5.30;2.10;;;10.70;99.90;;;;;;5020513;28;22671;-81
2021/10/06 08:26:56;;;;;;;4.87;1.70;;;10.70;99.90;;;;;;5030459;28;20262;-82
2021/10/06 08:29:21;;;;;;;4.80;2.50;;;10.70;94.30;;;;;;5034619;28;20656;-81
2021/10/06 08:31:47;;;;;;;5.67;2.27;;;10.70;99.90;;;;;;5029674;28;20479;-80
2021/10/06 08:34:13;;;;;;;5.00;2.30;;;10.90;99.90;;;;;;5021926;28;20218;-82
2021/10/06 08:36:38;;;;;;;5.37;2.60;;;10.90;99.90;;;;;;5025732;28;20190;-83
2021/10/06 08:39:08;;;;;;;5.50;2.13;;;10.90;44.10;;;;;;5028131;28;20269;-82
2021/10/06 08:41:35;;;;;;;6.80;3.27;;;10.90;50.10;;;;;;5021663;28;20709;-83
2021/10/06 08:44:00;;;;;;;4.60;2.33;;;10.90;63.90;;;;;;5022846;28;20452;-81
2021/10/06 08:46:27;;;;;;;6.67;2.73;;;11.00;99.90;;;;;;5006944;28;20472;-83
2021/10/06 08:48:54;;;;;;;8.70;2.20;;;11.00;94.00;;;;;;5031742;28;20213;-82
2021/10/06 08:51:21;;;;;;;8.17;3.07;;;11.10;94.90;;;;;;5023877;28;20521;-82
2021/10/06 08:53:48;;;;;;;6.90;2.43;;;10.90;24.00;;;;;;5034605;28;21271;-83
2021/10/06 08:56:14;;;;;;;5.00;1.97;;;11.00;49.10;;;;;;5038919;28;21217;-82
2021/10/06 08:58:39;;;;;;;4.93;2.10;;;11.10;22.90;;;;;;5031101;28;20556;-82
2021/10/06 09:01:05;;;;;;;7.43;2.60;;;11.20;36.60;;;;;;5034818;28;20686;-82
2021/10/06 09:03:33;;;;;;;8.10;2.97;;;11.20;1.00;;;;;;5043408;28;20210;-82
2021/10/06 09:06:07;;;;;;;7.40;2.37;;;11.20;5.60;;;;;;5043767;28;20191;-83
2021/10/06 09:08:34;;;;;;;8.20;2.40;;;11.10;1.00;;;;;;5032695;28;20764;-83
2021/10/06 09:11:01;;;;;;;5.13;2.30;;;11.10;1.00;;;;;;5042408;28;20476;-83
2021/10/06 09:13:30;;;;;;;15.03;2.07;;;11.10;1.00;;;;;;5037355;28;20893;-83
2021/10/06 09:15:58;;;;;;;5.90;2.37;;;11.10;1.00;;;;;;5037996;28;20444;-82
2021/10/06 09:18:29;;;;;;;3.70;2.00;;;11.10;3.30;;;;;;5028621;28;20465;-83
2021/10/06 09:21:07;;;;;;;3.00;1.60;;;11.10;1.00;;;;;;5036448;28;20448;-83
2021/10/06 09:23:39;;;;;;;8.47;2.90;;;11.20;38.10;;;;;;5038070;28;20457;-83
2021/10/06 09:26:07;;;;;;;6.07;2.10;;;11.20;1.00;;;;;;5033108;28;20444;-82
2021/10/06 09:28:38;;;;;;;5.83;2.20;;;11.00;1.00;;;;;;5049090;28;20449;-82
2021/10/06 09:31:08;;;;;;;6.93;2.37;;;11.10;10.90;;;;;;5034473;28;20460;-83
2021/10/06 09:33:56;;;;;;;3.63;2.43;;;11.10;8.90;;;;;;5038177;28;20481;-83
2021/10/06 09:36:35;;;;;;;10.70;2.20;;;11.10;26.80;;;;;;5032113;28;20564;-82
2021/10/06 09:39:10;;;;;;;6.20;2.90;;;11.10;62.20;;;;;;5036297;28;20451;-83
2021/10/06 09:41:41;;;;;;;4.00;2.43;;;11.20;99.90;;;;;;5029996;28;20816;-83
2021/10/06 09:44:08;;;;;;;4.47;2.30;;;11.30;99.90;;;;;;5030911;28;20864;-83
2021/10/06 09:46:52;;;;;;;5.00;2.70;;;11.30;99.90;;;;;;5034164;28;20455;-83
2021/10/06 09:49:21;;;;;;;7.90;4.20;;;11.30;99.90;;;;;;5035131;28;20837;-83
2021/10/06 09:51:47;;;;;;;5.50;2.60;;;11.30;99.90;;;;;;5011956;28;20469;-83
2021/10/06 09:54:13;;;;;;;9.30;3.10;;;11.20;99.90;;;;;;5027206;28;20607;-82
2021/10/06 09:56:41;;;;;;;7.97;2.63;;;11.30;99.90;;;;;;5028572;28;20444;-84
2021/10/06 09:59:07;;;;;;;5.00;2.60;;;11.30;99.90;;;;;;5046059;28;20187;-83
2021/10/06 10:01:37;;;;;;;6.70;2.40;;;11.30;99.90;;;;;;5042917;28;20461;-83
2021/10/06 10:04:05;;;;;;;8.50;2.20;;;11.20;99.90;;;;;;5041203;28;21041;-82
2021/10/06 10:06:31;;;;;;;10.00;2.70;;;11.20;99.90;;;;;;5026832;28;20514;-82
2021/10/06 10:08:58;;;;;;;5.70;2.30;;;11.20;99.90;;;;;;5023335;28;20460;-83
2021/10/06 10:11:24;;;;;;;7.10;2.30;;;11.40;99.90;;;;;;5024088;28;20480;-82
2021/10/06 10:13:50;;;;;;;4.17;2.57;;;11.40;99.90;;;;;;5019068;28;20564;-83
2021/10/06 10:16:16;;;;;;;6.90;2.43;;;11.40;99.90;;;;;;5016474;28;21535;-83
2021/10/06 10:18:43;;;;;;;7.13;2.33;;;11.40;99.90;;;;;;5022435;28;20469;-82
2021/10/06 10:21:12;;;;;;;8.33;3.17;;;11.40;99.90;;;;;;5019239;28;21316;-82
2021/10/06 10:23:38;;;;;;;5.87;2.17;;;11.40;99.90;;;;;;5017764;28;20456;-82
2021/10/06 10:26:03;;;;;;;3.67;2.13;;;11.30;99.90;;;;;;5023819;28;20457;-82
2021/10/06 10:28:40;;;;;;;6.23;2.50;;;11.30;99.90;;;;;;5032607;28;20189;-81
2021/10/06 10:31:06;;;;;;;7.27;2.20;;;11.10;1.00;;;;;;5026475;28;20288;-83
2021/10/06 10:33:44;;;;;;;8.43;2.87;;;11.10;1.00;;;;;;5027006;28;21046;-82
2021/10/06 10:36:49;;;;;;;5.67;2.17;;;11.00;68.80;;;;;;5026222;28;20178;-83
2021/10/06 10:39:41;;;;;;;5.50;2.33;;;11.00;99.90;;;;;;5018424;28;20441;-82
2021/10/06 10:42:13;;;;;;;6.83;2.30;;;10.90;99.90;;;;;;5040965;28;20465;-82
2021/10/06 10:44:41;;;;;;;7.07;2.80;;;11.00;70.60;;;;;;5026676;28;20477;-83
2021/10/06 10:47:20;;;;;;;2.97;1.90;;;10.90;1.00;;;;;;5035473;28;20448;-82
2021/10/06 10:50:06;;;;;;;2.97;2.30;;;10.90;1.00;;;;;;5040740;28;20445;-82
2021/10/06 10:52:47;;;;;;;3.70;2.10;;;10.80;99.90;;;;;;5029952;28;20498;-83
2021/10/06 10:55:15;;;;;;;3.20;1.97;;;10.90;99.90;;;;;;5043180;28;20456;-81
2021/10/06 10:57:41;;;;;;;3.10;2.00;;;11.00;99.90;;;;;;5021531;28;20463;-82
2021/10/06 11:00:29;;;;;;;4.20;2.30;;;10.90;99.90;;;;;;5038050;28;20487;-82
2021/10/06 11:03:00;;;;;;;3.80;2.47;;;11.00;99.90;;;;;;5026468;28;20537;-82
2021/10/06 11:05:44;;;;;;;4.47;2.83;;;11.00;99.90;;;;;;5024792;28;21887;-82
2021/10/06 11:08:25;;;;;;;4.57;2.90;;;11.00;99.90;;;;;;5023876;28;20824;-82
2021/10/06 11:11:09;;;;;;;4.50;2.50;;;11.00;99.90;;;;;;5029764;28;20452;-83
2021/10/06 11:13:37;;;;;;;3.10;2.60;;;11.10;99.90;;;;;;5029463;28;21047;-82
2021/10/06 11:16:04;;;;;;;3.27;2.80;;;11.20;99.90;;;;;;5036479;28;20672;-82
2021/10/06 11:18:46;;;;;;;2.77;2.50;;;11.20;99.90;;;;;;5015207;28;20471;-82
2021/10/06 11:21:28;;;;;;;3.93;2.20;;;11.20;99.90;;;;;;5026887;28;21386;-83
2021/10/06 11:23:56;;;;;;;3.80;2.23;;;11.20;99.90;;;;;;5022039;28;20448;-83
2021/10/06 11:26:27;;;;;;;6.17;2.50;;;11.10;99.90;;;;;;5031346;28;20467;-83
2021/10/06 11:28:54;;;;;;;2.50;2.30;;;11.20;99.90;;;;;;5037726;28;20966;-83
2021/10/06 11:31:28;;;;;;;3.27;2.20;;;11.20;99.90;;;;;;5034950;28;20471;-83
2021/10/06 11:33:55;;;;;;;5.33;1.97;;;11.30;99.90;;;;;;5026877;28;20815;-83
2021/10/06 11:36:29;;;;;;;4.43;2.33;;;11.40;99.90;;;;;;5028028;28;22918;-82
2021/10/06 11:39:13;;;;;;;3.00;2.70;;;11.30;99.90;;;;;;5024007;28;20672;-82
2021/10/06 11:41:47;;;;;;;3.00;2.47;;;11.30;99.90;;;;;;5013323;28;20527;-82
2021/10/06 11:44:18;;;;;;;6.47;2.63;;;11.20;99.90;;;;;;5020903;28;20635;-81
2021/10/06 11:46:45;;;;;;;2.77;2.53;;;11.10;99.90;;;;;;5018711;28;20522;-81
2021/10/06 11:49:11;;;;;;;3.07;2.00;;;11.10;99.90;;;;;;5029534;28;20464;-84
2021/10/06 11:51:53;;;;;;;3.10;2.10;;;11.10;99.90;;;;;;5034015;28;20512;-80
2021/10/06 11:54:22;;;;;;;4.33;2.57;;;11.20;99.90;;;;;;5039560;28;20178;-81
2021/10/06 11:56:50;;;;;;;2.50;2.30;;;11.30;99.90;;;;;;5038592;28;20711;-80
2021/10/06 11:59:18;;;;;;;5.53;2.50;;;11.30;99.90;;;;;;5046837;28;20520;-81
2021/10/06 12:01:51;;;;;;;5.63;2.73;;;11.20;99.90;;;;;;5032393;28;21778;-82
2021/10/06 12:04:18;;;;;;;4.57;2.90;;;11.10;99.90;;;;;;5046293;28;20468;-82
2021/10/06 12:06:48;;;;;;;4.30;3.47;;;11.20;99.90;;;;;;5048110;28;20483;-81
2021/10/06 12:09:15;;;;;;;4.70;3.20;;;11.20;99.90;;;;;;5033977;28;20978;-81
2021/10/06 12:11:44;;;;;;;3.43;2.87;;;11.30;99.90;;;;;;5039590;28;20475;-82
2021/10/06 12:14:27;;;;;;;4.20;2.77;;;11.20;99.90;;;;;;5045095;28;20605;-82
2021/10/06 12:17:10;;;;;;;3.83;3.00;;;11.20;99.90;;;;;;5039245;28;20596;-82
2021/10/06 12:19:37;;;;;;;5.00;3.50;;;11.20;99.90;;;;;;5039309;28;20456;-83
2021/10/06 12:22:05;;;;;;;3.90;3.17;;;11.20;99.90;;;;;;5044514;28;20463;-82
2021/10/06 12:24:31;;;;;;;3.67;3.37;;;11.30;99.90;;;;;;5034411;28;20436;-82
2021/10/06 12:26:58;;;;;;;6.43;3.83;;;11.20;99.90;;;;;;5045479;28;21008;-82
2021/10/06 12:29:30;;;;;;;4.57;3.47;;;11.30;99.90;;;;;;5049342;28;20925;-85
2021/10/06 12:32:19;;;;;;;3.80;3.20;;;11.20;99.90;;;;;;5039338;28;20479;-83
2021/10/06 12:34:45;;;;;;;3.70;3.27;;;11.20;99.90;;;;;;5025701;28;20464;-82
2021/10/06 12:37:12;;;;;;;3.50;2.90;;;11.20;99.90;;;;;;5047165;28;20887;-82
2021/10/06 12:39:48;;;;;;;7.97;2.70;;;11.20;99.90;;;;;;5029769;28;20190;-81
2021/10/06 12:42:14;;;;;;;2.60;2.23;;;11.20;99.90;;;;;;5021363;28;20449;-83
2021/10/06 12:44:45;;;;;;;5.30;3.07;;;11.30;99.90;;;;;;5032771;28;20460;-82
2021/10/06 12:47:25;;;;;;;3.50;2.60;;;11.40;99.90;;;;;;5033685;28;20194;-82
2021/10/06 12:50:10;;;;;;;3.50;2.13;;;11.30;99.90;;;;;;5038906;28;20467;-82
2021/10/06 12:52:36;;;;;;;3.00;2.67;;;11.40;99.90;;;;;;5033042;28;21165;-82